Time;durP1;ratioP1;P1;durP2;ratioP2;P2;SDS_P1;SDS_P2;PMS_P1;PMS_P2;Temp;Humidity;BMP_temperature;BMP_pressure;BME280_temperature;BME280_humidity;BME280_pressure;Samples;Min_cycle;Max_cycle;Signal;HPM_P1;HPM_P2
2023/01/10 00:00:14;;;;;;;4.00;3.33;;;5.00;99.90;;;;;;4992814;28;20191;-87
2023/01/10 00:02:40;;;;;;;4.70;4.20;;;5.00;99.90;;;;;;4975936;28;20217;-87
2023/01/10 00:05:06;;;;;;;4.40;3.70;;;4.90;99.90;;;;;;4993508;28;20184;-87
2023/01/10 00:07:31;;;;;;;5.27;3.80;;;4.90;99.90;;;;;;4993267;28;20192;-87
2023/01/10 00:09:57;;;;;;;5.30;3.77;;;4.90;99.90;;;;;;4975771;28;20183;-87
2023/01/10 00:15:07;;;;;;;5.53;4.07;;;4.90;99.90;;;;;;4993265;28;20230;-87
2023/01/10 00:17:33;;;;;;;4.57;3.77;;;4.80;99.90;;;;;;4975603;28;20206;-87
2023/01/10 00:19:58;;;;;;;5.30;3.90;;;4.80;99.90;;;;;;4975501;28;20200;-86
2023/01/10 00:22:24;;;;;;;6.97;4.10;;;4.80;99.90;;;;;;4975621;28;20172;-87
2023/01/10 00:24:50;;;;;;;6.80;3.60;;;4.80;99.90;;;;;;4993165;28;20164;-87
2023/01/10 00:27:21;;;;;;;6.10;3.70;;;4.80;99.90;;;;;;4993285;28;20176;-87
2023/01/10 00:29:47;;;;;;;5.47;3.93;;;4.70;99.90;;;;;;4975418;28;20175;-87
2023/01/10 00:32:12;;;;;;;5.13;3.60;;;4.80;99.90;;;;;;4992851;28;20570;-87
2023/01/10 00:34:38;;;;;;;4.27;3.70;;;4.80;99.90;;;;;;4992994;28;20172;-87
2023/01/10 00:37:03;;;;;;;7.33;3.67;;;4.70;99.90;;;;;;4975524;28;20249;-87
2023/01/10 00:39:30;;;;;;;6.53;3.60;;;4.70;99.90;;;;;;4992888;28;20187;-87
2023/01/10 00:44:40;;;;;;;5.37;3.70;;;4.70;99.90;;;;;;4993290;28;20187;-87
2023/01/10 00:47:05;;;;;;;5.90;4.17;;;4.70;99.90;;;;;;4975809;28;20179;-87
2023/01/10 00:49:31;;;;;;;7.00;4.57;;;4.70;99.90;;;;;;4975291;28;20183;-86
2023/01/10 00:51:58;;;;;;;5.10;4.30;;;4.70;99.90;;;;;;4992348;28;20673;-86
2023/01/10 00:54:24;;;;;;;5.67;4.20;;;4.60;99.90;;;;;;4975370;28;20192;-87
2023/01/10 00:56:50;;;;;;;5.77;4.50;;;4.60;99.90;;;;;;4992948;28;20186;-87
2023/01/10 00:59:17;;;;;;;5.77;4.30;;;4.60;99.90;;;;;;4975390;28;20558;-87
2023/01/10 01:01:42;;;;;;;7.43;4.40;;;4.60;99.90;;;;;;4975214;28;20180;-86
2023/01/10 01:04:08;;;;;;;5.97;4.20;;;4.70;99.90;;;;;;5028455;22;20233;-80
2023/01/10 01:06:33;;;;;;;4.80;4.10;;;4.70;99.90;;;;;;4994674;28;20258;-80
2023/01/10 01:08:59;;;;;;;6.80;4.20;;;4.70;99.90;;;;;;5011936;28;20195;-79
2023/01/10 01:11:25;;;;;;;6.93;3.87;;;4.70;99.90;;;;;;5013270;28;20596;-80
2023/01/10 01:13:51;;;;;;;4.60;3.50;;;4.70;99.90;;;;;;5015901;28;20198;-80
2023/01/10 01:16:17;;;;;;;6.07;3.93;;;4.70;99.90;;;;;;4998365;28;20572;-80
2023/01/10 01:18:43;;;;;;;5.17;3.97;;;4.70;99.90;;;;;;5016182;28;20230;-80
2023/01/10 01:21:08;;;;;;;4.80;3.70;;;4.80;99.90;;;;;;5015626;28;20213;-80
2023/01/10 01:23:34;;;;;;;4.50;3.70;;;4.80;99.90;;;;;;4998092;28;20298;-80
2023/01/10 01:26:01;;;;;;;5.87;3.90;;;4.80;99.90;;;;;;4998265;28;20179;-80
2023/01/10 01:28:26;;;;;;;6.77;3.93;;;4.90;99.90;;;;;;5015496;28;20181;-80
2023/01/10 01:30:52;;;;;;;6.13;4.17;;;4.80;99.90;;;;;;5015369;28;20270;-79
2023/01/10 01:33:19;;;;;;;5.53;3.77;;;4.80;99.90;;;;;;5015467;28;20191;-79
2023/01/10 01:35:46;;;;;;;4.93;3.80;;;4.80;99.90;;;;;;5015420;28;20174;-80
2023/01/10 01:38:13;;;;;;;4.57;3.60;;;4.80;99.90;;;;;;4997722;28;20167;-80
2023/01/10 01:40:40;;;;;;;4.27;3.67;;;4.70;99.90;;;;;;4997555;28;20282;-80
2023/01/10 01:43:22;;;;;;;5.10;3.63;;;4.80;99.90;;;;;;4997603;28;20194;-81
2023/01/10 01:45:48;;;;;;;5.60;3.40;;;4.80;99.90;;;;;;5015353;28;20183;-81
2023/01/10 01:48:15;;;;;;;4.77;3.63;;;4.90;99.90;;;;;;4997790;28;20179;-80
2023/01/10 01:50:50;;;;;;;4.90;3.67;;;4.80;99.90;;;;;;4996979;28;20202;-80
2023/01/10 01:53:29;;;;;;;6.03;4.10;;;4.80;99.90;;;;;;4997814;28;20190;-80
2023/01/10 01:56:01;;;;;;;5.77;3.80;;;4.80;99.90;;;;;;5015179;28;20280;-80
2023/01/10 01:58:59;;;;;;;5.77;4.13;;;4.80;99.90;;;;;;4997718;28;20175;-80
2023/01/10 02:01:26;;;;;;;6.63;3.77;;;4.80;99.90;;;;;;5011717;28;20196;-80
2023/01/10 02:03:57;;;;;;;6.20;4.13;;;4.80;99.90;;;;;;5014847;28;20206;-80
2023/01/10 02:06:24;;;;;;;5.23;4.07;;;4.70;99.90;;;;;;5014996;28;20258;-80
2023/01/10 02:08:58;;;;;;;5.20;4.03;;;4.80;99.90;;;;;;4997263;28;20229;-80
2023/01/10 02:11:23;;;;;;;6.93;4.00;;;4.80;99.90;;;;;;5014547;28;20198;-80
2023/01/10 02:13:49;;;;;;;5.77;3.97;;;4.80;99.90;;;;;;5015138;28;20194;-81
2023/01/10 02:16:15;;;;;;;6.97;4.83;;;4.90;99.90;;;;;;5014841;28;20182;-80
2023/01/10 02:18:41;;;;;;;6.73;3.60;;;4.90;99.90;;;;;;4997195;28;20175;-80
2023/01/10 02:21:30;;;;;;;6.00;3.90;;;4.90;99.90;;;;;;5014538;28;20182;-80
2023/01/10 02:24:26;;;;;;;6.70;3.90;;;4.90;99.90;;;;;;4996955;28;20195;-80
2023/01/10 02:27:13;;;;;;;4.67;3.83;;;5.00;99.90;;;;;;5014671;28;20222;-80
2023/01/10 02:29:56;;;;;;;7.97;4.27;;;4.90;99.90;;;;;;5014378;28;20171;-80
2023/01/10 02:32:39;;;;;;;5.40;4.27;;;5.00;99.90;;;;;;5014401;28;20175;-80
2023/01/10 02:35:40;;;;;;;5.83;4.27;;;5.00;99.90;;;;;;4997183;28;20170;-80
2023/01/10 02:38:37;;;;;;;5.33;4.10;;;4.90;99.90;;;;;;5011049;28;20182;-80
2023/01/10 02:41:25;;;;;;;7.03;3.87;;;4.90;99.90;;;;;;5014298;28;20642;-80
2023/01/10 02:43:56;;;;;;;4.83;3.43;;;4.90;99.90;;;;;;5014201;28;20202;-80
2023/01/10 02:46:27;;;;;;;4.83;3.80;;;4.90;99.90;;;;;;5014626;28;20175;-80
2023/01/10 02:48:54;;;;;;;4.60;3.37;;;4.90;99.90;;;;;;5014158;28;20225;-80
2023/01/10 02:51:29;;;;;;;5.30;3.40;;;5.00;99.90;;;;;;4996357;28;20680;-80
2023/01/10 02:54:03;;;;;;;4.67;3.40;;;5.00;99.90;;;;;;5014035;28;20657;-81
2023/01/10 02:56:35;;;;;;;4.53;3.10;;;5.00;99.90;;;;;;4996492;28;20218;-80
2023/01/10 02:59:22;;;;;;;5.10;3.60;;;5.00;99.90;;;;;;5013916;28;20171;-80
2023/01/10 03:02:13;;;;;;;5.53;3.20;;;4.90;99.90;;;;;;4996078;28;20565;-80
2023/01/10 03:05:09;;;;;;;4.10;3.20;;;4.90;99.90;;;;;;5013785;28;20218;-77
2023/01/10 03:07:50;;;;;;;3.73;2.87;;;4.90;99.90;;;;;;4996615;28;20636;-79
2023/01/10 03:10:24;;;;;;;3.67;2.90;;;4.90;99.90;;;;;;5014255;28;20191;-80
2023/01/10 03:12:54;;;;;;;4.50;2.77;;;4.90;99.90;;;;;;4996589;28;20167;-79
2023/01/10 03:15:20;;;;;;;3.40;2.60;;;4.90;99.90;;;;;;5013939;28;20159;-79
2023/01/10 03:17:52;;;;;;;4.13;2.90;;;4.90;99.90;;;;;;5013550;28;20221;-80
2023/01/10 03:20:19;;;;;;;4.47;2.90;;;4.90;99.90;;;;;;5013134;28;20175;-80
2023/01/10 03:22:46;;;;;;;4.17;2.97;;;4.90;99.90;;;;;;4995779;28;20179;-80
2023/01/10 03:25:15;;;;;;;4.53;2.83;;;4.90;99.90;;;;;;4995876;28;20202;-81
2023/01/10 03:28:04;;;;;;;3.20;2.87;;;4.90;99.90;;;;;;4995848;28;20187;-80
2023/01/10 03:30:32;;;;;;;3.80;3.10;;;4.90;99.90;;;;;;4995366;28;20225;-80
2023/01/10 03:32:58;;;;;;;3.37;2.90;;;4.80;99.90;;;;;;4995223;28;20288;-80
2023/01/10 03:35:34;;;;;;;3.53;2.80;;;4.80;99.90;;;;;;4995196;28;20198;-81
2023/01/10 03:38:16;;;;;;;5.30;3.47;;;4.80;99.90;;;;;;4995892;28;20181;-80
2023/01/10 03:40:54;;;;;;;3.40;2.87;;;4.80;99.90;;;;;;5012915;28;20183;-80
2023/01/10 03:46:45;;;;;;;3.73;2.90;;;4.80;99.90;;;;;;5013497;28;20253;-79
2023/01/10 03:49:12;;;;;;;4.33;2.87;;;4.70;99.90;;;;;;5013540;28;20179;-80
2023/01/10 03:51:39;;;;;;;3.40;2.83;;;4.80;99.90;;;;;;4995432;28;20307;-80
2023/01/10 03:54:05;;;;;;;4.37;2.93;;;4.70;99.90;;;;;;5012979;28;20198;-80
2023/01/10 03:56:30;;;;;;;3.70;2.73;;;4.80;99.90;;;;;;5013079;28;20175;-80
2023/01/10 03:58:57;;;;;;;5.70;3.10;;;4.80;99.90;;;;;;5012958;28;20172;-80
2023/01/10 04:01:22;;;;;;;4.10;2.90;;;4.80;99.90;;;;;;4995181;28;20186;-80
2023/01/10 04:03:48;;;;;;;6.90;3.10;;;4.90;99.90;;;;;;4995086;28;20322;-80
2023/01/10 04:06:13;;;;;;;3.13;2.83;;;4.90;99.90;;;;;;4995328;28;20175;-80
2023/01/10 04:08:39;;;;;;;3.83;2.90;;;4.90;99.90;;;;;;5012591;28;20554;-80
2023/01/10 04:11:05;;;;;;;6.50;3.20;;;4.80;99.90;;;;;;5012573;28;20209;-80
2023/01/10 04:13:30;;;;;;;5.47;3.37;;;4.80;99.90;;;;;;5012744;28;20187;-80
2023/01/10 04:15:59;;;;;;;3.83;2.77;;;4.80;99.90;;;;;;4995093;28;20176;-80
2023/01/10 04:18:24;;;;;;;3.10;2.60;;;4.70;99.90;;;;;;4994868;28;20182;-80
2023/01/10 04:20:50;;;;;;;4.10;2.83;;;4.70;99.90;;;;;;4995019;28;20166;-80
2023/01/10 04:23:15;;;;;;;4.60;3.20;;;4.70;99.90;;;;;;4994773;28;20254;-80
2023/01/10 04:25:45;;;;;;;4.27;3.13;;;4.70;99.90;;;;;;5012632;28;20276;-80
2023/01/10 04:28:10;;;;;;;3.97;2.80;;;4.60;99.90;;;;;;4994895;28;20201;-81
2023/01/10 04:30:36;;;;;;;3.97;2.80;;;4.60;99.90;;;;;;5012109;28;20199;-80
2023/01/10 04:33:01;;;;;;;4.47;2.77;;;4.60;99.90;;;;;;4994931;28;20195;-79
2023/01/10 04:35:27;;;;;;;3.97;2.77;;;4.50;99.90;;;;;;5012613;28;20172;-80
2023/01/10 04:37:52;;;;;;;6.20;3.80;;;4.70;99.90;;;;;;5012496;28;20209;-80
2023/01/10 04:40:22;;;;;;;3.70;2.83;;;4.60;99.90;;;;;;5012584;28;20178;-80
2023/01/10 04:42:47;;;;;;;4.20;2.93;;;4.60;99.90;;;;;;5012221;28;20261;-80
2023/01/10 04:45:16;;;;;;;3.33;3.00;;;4.60;99.90;;;;;;4995930;28;20214;-81
2023/01/10 04:47:42;;;;;;;3.70;3.13;;;4.60;99.90;;;;;;5016520;28;20170;-80
2023/01/10 04:50:08;;;;;;;3.23;2.80;;;4.60;99.90;;;;;;4998591;28;20179;-80
2023/01/10 04:52:34;;;;;;;5.27;3.20;;;4.60;99.90;;;;;;4998696;28;20172;-80
2023/01/10 04:54:59;;;;;;;4.30;3.20;;;4.60;99.90;;;;;;5016525;28;20199;-79
2023/01/10 04:57:25;;;;;;;4.57;3.47;;;4.70;99.90;;;;;;4998867;28;20241;-80
2023/01/10 04:59:50;;;;;;;5.20;3.20;;;4.80;99.90;;;;;;4998438;28;20177;-80
2023/01/10 05:02:16;;;;;;;4.77;3.13;;;4.80;99.90;;;;;;4998560;28;20180;-80
2023/01/10 05:04:41;;;;;;;6.13;3.47;;;4.80;99.90;;;;;;4998621;28;20230;-80
2023/01/10 05:07:07;;;;;;;7.27;3.70;;;4.90;99.90;;;;;;4998615;28;20203;-80
2023/01/10 05:09:32;;;;;;;5.13;3.60;;;4.80;99.90;;;;;;5016091;28;20202;-80
2023/01/10 05:11:58;;;;;;;3.80;3.20;;;4.90;99.90;;;;;;4998259;28;20206;-80
2023/01/10 05:14:23;;;;;;;5.80;3.63;;;4.90;99.90;;;;;;4998374;28;20191;-79
2023/01/10 05:16:49;;;;;;;6.83;3.33;;;4.90;99.90;;;;;;5016108;28;20174;-80
2023/01/10 05:19:14;;;;;;;3.87;3.33;;;4.90;99.90;;;;;;5015719;28;20177;-80
2023/01/10 05:21:40;;;;;;;3.97;3.33;;;4.90;99.90;;;;;;4998378;28;20180;-79
2023/01/10 05:24:06;;;;;;;4.57;3.43;;;4.90;99.90;;;;;;4996206;28;20207;-80
2023/01/10 05:26:31;;;;;;;4.90;4.13;;;4.80;99.90;;;;;;4978734;28;20176;-79
2023/01/10 05:28:57;;;;;;;5.87;4.10;;;4.80;99.90;;;;;;4978570;28;20226;-79
2023/01/10 05:31:22;;;;;;;6.27;3.67;;;4.80;99.90;;;;;;4978613;28;20689;-80
2023/01/10 05:33:50;;;;;;;4.93;3.60;;;4.70;99.90;;;;;;4978460;28;20203;-80
2023/01/10 05:36:16;;;;;;;4.20;3.63;;;4.80;99.90;;;;;;4978289;28;20176;-80
2023/01/10 05:38:43;;;;;;;8.00;4.27;;;4.70;99.90;;;;;;4995837;28;20635;-80
2023/01/10 05:41:08;;;;;;;7.03;4.17;;;4.70;99.90;;;;;;4995600;28;20183;-80
2023/01/10 05:43:34;;;;;;;5.50;3.53;;;4.80;99.90;;;;;;4995524;28;20203;-80
2023/01/10 05:46:00;;;;;;;4.60;3.73;;;4.70;99.90;;;;;;4995679;28;20204;-80
2023/01/10 05:48:26;;;;;;;6.80;4.23;;;4.70;99.90;;;;;;4995599;28;20204;-81
2023/01/10 05:50:51;;;;;;;7.90;4.30;;;4.80;99.90;;;;;;4995518;28;20199;-80
2023/01/10 05:53:18;;;;;;;5.37;4.27;;;4.70;99.90;;;;;;4978077;28;20214;-80
2023/01/10 05:55:50;;;;;;;5.70;4.17;;;4.70;99.90;;;;;;4978079;28;20178;-80
2023/01/10 05:58:16;;;;;;;6.40;3.97;;;4.70;99.90;;;;;;4994567;28;20647;-80
2023/01/10 06:00:41;;;;;;;7.10;4.20;;;4.70;99.90;;;;;;4995475;28;20210;-80
2023/01/10 06:03:07;;;;;;;7.00;3.87;;;4.60;99.90;;;;;;4995450;28;20227;-80
2023/01/10 06:05:32;;;;;;;5.53;3.97;;;4.60;99.90;;;;;;4978025;28;20177;-80
2023/01/10 06:07:58;;;;;;;4.90;3.80;;;4.60;99.90;;;;;;4977847;28;20201;-79
2023/01/10 06:10:24;;;;;;;4.80;3.60;;;4.60;99.90;;;;;;4977758;28;20259;-79
2023/01/10 06:12:49;;;;;;;5.30;3.60;;;4.60;99.90;;;;;;4995111;28;20184;-79
2023/01/10 06:15:16;;;;;;;6.27;3.60;;;4.60;99.90;;;;;;4977921;28;20172;-80
2023/01/10 06:17:43;;;;;;;6.10;3.20;;;4.60;99.90;;;;;;4995519;28;20188;-79
2023/01/10 06:20:10;;;;;;;6.10;3.43;;;4.60;99.90;;;;;;4977746;28;20181;-79
2023/01/10 06:22:35;;;;;;;6.00;3.70;;;4.60;99.90;;;;;;4995147;28;20188;-78
2023/01/10 06:25:01;;;;;;;4.40;3.50;;;4.60;99.90;;;;;;4977618;28;20186;-79
2023/01/10 06:27:26;;;;;;;5.73;3.43;;;4.60;99.90;;;;;;4977646;28;20259;-79
2023/01/10 06:29:52;;;;;;;6.43;3.50;;;4.60;99.90;;;;;;4977441;28;20630;-79
2023/01/10 06:32:17;;;;;;;7.77;3.73;;;4.60;99.90;;;;;;4995189;28;20365;-79
2023/01/10 06:34:43;;;;;;;4.90;3.57;;;4.60;99.90;;;;;;4977329;28;20237;-79
2023/01/10 06:37:08;;;;;;;7.37;3.60;;;4.60;99.90;;;;;;4994840;28;20182;-79
2023/01/10 06:39:34;;;;;;;6.60;3.70;;;4.60;99.90;;;;;;4977818;28;20183;-79
2023/01/10 06:41:59;;;;;;;7.40;3.90;;;4.60;99.90;;;;;;4977864;28;20183;-79
2023/01/10 06:44:25;;;;;;;6.63;3.80;;;4.60;99.90;;;;;;4977132;28;20254;-78
2023/01/10 06:46:51;;;;;;;5.70;4.30;;;4.60;99.90;;;;;;4977261;28;20544;-79
2023/01/10 06:49:17;;;;;;;6.77;3.80;;;4.50;99.90;;;;;;4977901;28;20182;-80
2023/01/10 06:51:42;;;;;;;7.33;4.10;;;4.60;99.90;;;;;;4978220;28;20196;-80
2023/01/10 06:54:08;;;;;;;7.13;4.23;;;4.60;99.90;;;;;;4977199;28;20201;-79
2023/01/10 06:56:33;;;;;;;6.00;4.03;;;4.70;99.90;;;;;;4994851;28;20262;-78
2023/01/10 06:58:59;;;;;;;6.23;4.00;;;4.70;99.90;;;;;;4994628;28;20175;-78
2023/01/10 07:01:25;;;;;;;6.50;4.30;;;4.70;99.90;;;;;;4976792;28;20188;-79
2023/01/10 07:03:50;;;;;;;6.77;3.77;;;4.70;99.90;;;;;;5049154;22;20232;-77
2023/01/10 07:06:17;;;;;;;7.90;3.97;;;4.60;99.90;;;;;;5036188;28;20173;-78
2023/01/10 07:08:44;;;;;;;8.37;4.13;;;4.60;99.90;;;;;;5053781;28;20161;-78
2023/01/10 07:11:12;;;;;;;6.03;4.03;;;4.50;99.90;;;;;;5053749;28;20593;-77
2023/01/10 07:13:39;;;;;;;6.00;3.97;;;4.50;99.90;;;;;;5032141;28;20205;-79
2023/01/10 07:16:06;;;;;;;5.33;4.00;;;4.50;99.90;;;;;;5016825;28;20182;-79
2023/01/10 07:18:37;;;;;;;9.60;4.57;;;4.50;99.90;;;;;;5034308;28;20174;-78
2023/01/10 07:21:03;;;;;;;9.33;4.17;;;4.40;99.90;;;;;;5016775;28;20204;-81
2023/01/10 07:23:30;;;;;;;8.37;4.63;;;4.30;99.90;;;;;;5035176;28;20202;-82
2023/01/10 07:26:03;;;;;;;7.50;4.60;;;4.30;99.90;;;;;;5015914;28;20268;-83
2023/01/10 07:28:29;;;;;;;7.63;4.30;;;4.30;99.90;;;;;;5015721;28;20198;-83
2023/01/10 07:31:04;;;;;;;9.10;4.30;;;4.20;99.90;;;;;;5033513;28;20233;-83
2023/01/10 07:33:30;;;;;;;12.13;4.43;;;4.20;99.90;;;;;;5015739;28;20190;-83
2023/01/10 07:35:57;;;;;;;7.60;3.80;;;4.20;99.90;;;;;;5015793;28;20640;-83
2023/01/10 07:38:22;;;;;;;10.13;4.53;;;4.10;99.90;;;;;;5033242;28;20178;-83
2023/01/10 07:40:48;;;;;;;6.20;3.73;;;4.10;99.90;;;;;;5015342;28;20205;-83
2023/01/10 07:43:13;;;;;;;8.10;3.80;;;4.00;99.90;;;;;;5015704;28;20201;-83
2023/01/10 07:45:39;;;;;;;11.43;4.17;;;4.00;99.90;;;;;;5015458;28;20177;-83
2023/01/10 07:48:05;;;;;;;6.70;3.63;;;4.00;99.90;;;;;;5033802;28;20275;-83
2023/01/10 07:50:34;;;;;;;6.87;3.67;;;4.00;99.90;;;;;;5033446;28;20198;-83
2023/01/10 07:53:01;;;;;;;9.17;3.50;;;4.10;99.90;;;;;;5015821;28;20253;-80
2023/01/10 07:55:28;;;;;;;7.23;3.73;;;4.10;99.90;;;;;;5015599;28;20193;-83
2023/01/10 07:57:53;;;;;;;8.87;3.53;;;4.10;99.90;;;;;;5015304;28;20261;-83
2023/01/10 08:00:20;;;;;;;5.73;3.50;;;4.00;99.90;;;;;;5015428;28;20260;-83
2023/01/10 08:02:46;;;;;;;6.70;3.13;;;4.00;99.90;;;;;;5014874;28;20716;-84
2023/01/10 08:05:12;;;;;;;6.63;3.30;;;4.00;99.90;;;;;;5014897;28;20624;-84
2023/01/10 08:07:37;;;;;;;6.63;3.10;;;4.00;99.90;;;;;;5032894;28;20174;-83
2023/01/10 08:10:06;;;;;;;7.43;3.50;;;4.20;99.90;;;;;;5032572;28;20170;-84
2023/01/10 08:12:32;;;;;;;9.23;3.50;;;4.20;99.90;;;;;;5032649;28;20166;-83
2023/01/10 08:14:58;;;;;;;5.80;2.93;;;4.20;99.90;;;;;;5015282;28;20196;-83
2023/01/10 08:17:23;;;;;;;5.87;2.70;;;4.30;99.90;;;;;;5032699;28;20249;-85
2023/01/10 08:19:49;;;;;;;6.10;2.83;;;4.40;99.90;;;;;;5013705;28;20174;-83
2023/01/10 08:22:14;;;;;;;5.63;3.00;;;4.40;99.90;;;;;;5031923;28;20177;-83
2023/01/10 08:24:40;;;;;;;7.80;3.17;;;4.40;99.90;;;;;;5014604;28;20198;-83
2023/01/10 08:27:06;;;;;;;8.77;3.60;;;4.40;99.90;;;;;;5032612;28;20217;-83
2023/01/10 08:29:32;;;;;;;9.43;3.17;;;4.50;99.90;;;;;;5015348;28;20170;-82
2023/01/10 08:31:57;;;;;;;5.33;2.70;;;4.50;99.90;;;;;;5014797;28;20240;-83
2023/01/10 08:34:23;;;;;;;7.37;3.43;;;4.50;99.90;;;;;;5032725;28;20217;-83
2023/01/10 08:36:51;;;;;;;5.67;2.87;;;4.50;99.90;;;;;;5032604;28;20581;-83
2023/01/10 08:39:17;;;;;;;8.80;3.37;;;4.50;99.90;;;;;;5015304;28;20177;-83
2023/01/10 08:41:43;;;;;;;6.40;3.27;;;4.50;99.90;;;;;;5014814;28;20257;-82
2023/01/10 08:44:11;;;;;;;7.13;3.10;;;4.50;99.90;;;;;;5032956;28;20285;-83
2023/01/10 08:46:37;;;;;;;6.73;3.20;;;4.60;99.90;;;;;;5032988;28;20289;-83
2023/01/10 08:49:02;;;;;;;7.57;3.10;;;4.60;99.90;;;;;;5014840;28;20256;-83
2023/01/10 08:51:28;;;;;;;7.70;3.43;;;4.60;99.90;;;;;;5014621;28;20198;-83
2023/01/10 08:53:54;;;;;;;4.50;2.80;;;4.70;99.90;;;;;;5032561;28;20263;-83
2023/01/10 08:56:19;;;;;;;6.57;2.90;;;4.60;99.90;;;;;;5014814;28;20265;-83
2023/01/10 08:58:45;;;;;;;5.83;2.90;;;4.60;99.90;;;;;;5032027;28;20180;-83
2023/01/10 09:01:11;;;;;;;7.40;4.03;;;4.70;99.90;;;;;;5014972;28;20177;-83
2023/01/10 09:03:38;;;;;;;6.47;3.47;;;4.70;99.90;;;;;;5032484;28;20210;-83
2023/01/10 09:06:04;;;;;;;5.63;2.90;;;4.70;99.90;;;;;;5014906;28;20174;-83
2023/01/10 09:08:30;;;;;;;5.80;3.00;;;4.70;99.90;;;;;;5032405;28;20180;-83
2023/01/10 09:10:58;;;;;;;7.57;3.13;;;4.60;99.90;;;;;;5032411;28;20201;-83
2023/01/10 09:13:24;;;;;;;5.70;2.83;;;4.60;99.90;;;;;;5014715;28;20194;-83
2023/01/10 09:15:50;;;;;;;6.03;3.60;;;4.60;99.90;;;;;;5014843;28;20671;-82
2023/01/10 09:18:16;;;;;;;7.57;3.80;;;4.70;99.90;;;;;;5014703;28;20655;-83
2023/01/10 09:20:42;;;;;;;5.30;3.37;;;4.70;99.90;;;;;;5014559;28;20179;-83
2023/01/10 09:23:10;;;;;;;5.30;3.10;;;4.70;99.90;;;;;;5014461;28;20174;-83
2023/01/10 09:25:36;;;;;;;11.00;3.73;;;4.70;99.90;;;;;;5032396;28;20209;-83
2023/01/10 09:28:03;;;;;;;7.07;5.13;;;4.70;99.90;;;;;;5032249;28;20205;-83
2023/01/10 09:30:30;;;;;;;9.40;5.00;;;4.70;99.90;;;;;;5014583;28;20229;-83
2023/01/10 09:32:56;;;;;;;14.20;8.50;;;4.80;99.90;;;;;;5034645;28;20220;-83
2023/01/10 09:35:24;;;;;;;6.73;4.83;;;4.80;99.90;;;;;;5018421;28;20195;-82
2023/01/10 09:37:53;;;;;;;7.17;4.73;;;4.80;99.90;;;;;;5036102;28;20220;-83
2023/01/10 09:40:29;;;;;;;8.77;4.30;;;4.80;99.90;;;;;;5018350;28;20178;-82
2023/01/10 09:43:02;;;;;;;16.40;5.37;;;4.80;99.90;;;;;;5035957;28;20632;-83
2023/01/10 09:46:05;;;;;;;7.67;4.03;;;4.80;99.90;;;;;;5017978;28;20194;-83
2023/01/10 09:48:43;;;;;;;13.23;6.57;;;4.80;99.90;;;;;;5006318;28;20236;-82
2023/01/10 09:51:22;;;;;;;8.17;4.30;;;4.80;99.90;;;;;;5017701;28;20228;-83
2023/01/10 09:53:49;;;;;;;12.37;5.13;;;4.80;99.90;;;;;;5018107;28;20674;-83
2023/01/10 09:56:15;;;;;;;10.97;4.20;;;4.90;99.90;;;;;;5017657;28;20178;-83
2023/01/10 09:58:42;;;;;;;7.40;4.00;;;4.80;99.90;;;;;;5035076;28;20542;-81
2023/01/10 10:01:15;;;;;;;7.17;3.67;;;4.80;99.90;;;;;;5017423;28;20273;-83
2023/01/10 10:04:26;;;;;;;7.63;3.70;;;4.80;99.90;;;;;;5035539;28;20213;-83
2023/01/10 10:06:52;;;;;;;3.53;2.40;;;4.90;99.90;;;;;;5035668;28;20189;-83
2023/01/10 10:09:25;;;;;;;7.50;2.77;;;5.00;99.90;;;;;;5017916;28;20175;-82
2023/01/10 10:12:17;;;;;;;6.37;3.10;;;5.00;99.90;;;;;;5017283;28;20228;-83
2023/01/10 10:14:59;;;;;;;6.93;3.53;;;5.10;99.90;;;;;;5018051;28;20277;-82
2023/01/10 10:17:30;;;;;;;5.13;3.53;;;5.10;99.90;;;;;;5035464;28;20246;-83
2023/01/10 10:20:05;;;;;;;9.87;4.20;;;5.10;99.90;;;;;;5034937;28;20171;-83
2023/01/10 10:22:43;;;;;;;6.93;2.90;;;5.20;99.90;;;;;;5017579;28;20201;-83
2023/01/10 10:25:25;;;;;;;6.27;3.53;;;5.40;99.90;;;;;;5017182;28;20196;-83
2023/01/10 10:28:08;;;;;;;10.07;3.87;;;5.70;99.90;;;;;;5035195;28;20167;-83
2023/01/10 10:30:53;;;;;;;7.13;3.47;;;5.70;99.90;;;;;;5034815;28;20310;-83
2023/01/10 10:33:52;;;;;;;7.10;3.00;;;5.60;99.90;;;;;;5034590;28;20691;-83
2023/01/10 10:36:26;;;;;;;8.40;3.43;;;5.60;99.90;;;;;;5034961;28;20262;-82
2023/01/10 10:38:56;;;;;;;5.20;2.70;;;5.40;99.90;;;;;;5017438;28;20625;-83
2023/01/10 10:41:31;;;;;;;7.70;3.20;;;5.40;99.90;;;;;;5016747;28;20177;-83
2023/01/10 10:44:03;;;;;;;6.10;2.80;;;5.40;99.90;;;;;;5034495;28;20248;-83
2023/01/10 10:46:30;;;;;;;7.83;2.97;;;5.30;99.90;;;;;;5034795;28;20261;-83
2023/01/10 10:49:05;;;;;;;8.00;3.27;;;5.20;99.90;;;;;;5034855;28;20232;-83
2023/01/10 10:51:44;;;;;;;8.23;3.13;;;5.20;99.90;;;;;;5016739;28;20216;-83
2023/01/10 10:54:12;;;;;;;6.57;2.70;;;5.20;99.90;;;;;;5017117;28;20576;-83
2023/01/10 10:56:38;;;;;;;7.87;2.83;;;5.20;99.90;;;;;;5016570;28;20175;-83
2023/01/10 10:59:04;;;;;;;7.73;2.80;;;5.20;99.90;;;;;;5016445;28;20177;-81
2023/01/10 11:01:30;;;;;;;7.47;2.97;;;5.20;99.90;;;;;;5016712;28;20179;-83
2023/01/10 11:04:08;;;;;;;4.87;2.53;;;5.10;99.90;;;;;;5034303;28;20214;-82
2023/01/10 11:06:37;;;;;;;4.70;2.67;;;5.20;99.90;;;;;;5016912;28;20178;-81
2023/01/10 11:09:05;;;;;;;8.60;3.40;;;5.10;99.90;;;;;;5034819;28;20206;-82
2023/01/10 11:11:35;;;;;;;9.13;2.93;;;5.10;99.90;;;;;;5034455;28;20668;-80
2023/01/10 11:14:04;;;;;;;5.60;2.60;;;5.20;99.90;;;;;;5016617;28;20664;-82
2023/01/10 11:16:35;;;;;;;5.40;2.67;;;5.20;99.90;;;;;;5016071;28;20262;-82
2023/01/10 11:19:22;;;;;;;6.90;2.53;;;5.20;99.90;;;;;;5033993;28;20178;-83
2023/01/10 11:22:02;;;;;;;8.93;2.87;;;5.30;99.90;;;;;;5033485;28;20173;-82
2023/01/10 11:24:38;;;;;;;10.73;2.90;;;5.40;99.90;;;;;;5016110;28;20288;-81
2023/01/10 11:27:15;;;;;;;6.13;2.10;;;5.60;99.90;;;;;;5016334;28;20179;-81
2023/01/10 11:29:48;;;;;;;9.27;2.93;;;5.70;99.90;;;;;;5015903;28;20181;-82
2023/01/10 11:32:18;;;;;;;4.37;2.60;;;5.80;99.90;;;;;;5016062;28;20310;-80
2023/01/10 11:34:57;;;;;;;9.50;2.83;;;5.80;99.90;;;;;;5015768;28;20241;-82
2023/01/10 11:37:31;;;;;;;7.10;2.60;;;5.70;99.90;;;;;;5033192;28;20176;-84
2023/01/10 11:40:15;;;;;;;6.70;2.43;;;5.70;99.90;;;;;;5015423;28;20177;-84
2023/01/10 11:42:41;;;;;;;5.93;2.70;;;5.60;99.90;;;;;;5015284;28;20199;-84
2023/01/10 11:45:22;;;;;;;5.50;2.33;;;5.60;99.90;;;;;;5033054;28;20615;-84
2023/01/10 11:48:04;;;;;;;7.27;2.53;;;5.60;99.90;;;;;;5015279;28;20181;-84
2023/01/10 11:50:33;;;;;;;9.13;2.40;;;5.60;99.90;;;;;;5014974;28;20266;-83
2023/01/10 11:52:59;;;;;;;9.00;2.73;;;5.60;99.90;;;;;;5033103;28;20178;-83
2023/01/10 11:55:34;;;;;;;6.13;2.50;;;5.60;99.90;;;;;;5032487;28;20190;-80
2023/01/10 11:58:09;;;;;;;7.27;2.40;;;5.50;99.90;;;;;;5015478;28;20177;-83
2023/01/10 12:00:39;;;;;;;11.13;3.30;;;5.50;99.90;;;;;;5033166;28;20175;-83
2023/01/10 12:03:26;;;;;;;7.17;2.70;;;5.90;99.90;;;;;;5008129;28;20182;-83
2023/01/10 12:05:54;;;;;;;12.33;3.37;;;5.90;99.90;;;;;;5016445;28;20186;-82
2023/01/10 12:08:35;;;;;;;9.10;3.50;;;5.90;99.90;;;;;;5015989;28;20180;-82
2023/01/10 12:11:06;;;;;;;7.57;2.50;;;6.40;99.90;;;;;;5015482;28;20198;-84
2023/01/10 12:14:01;;;;;;;5.57;2.20;;;6.20;99.90;;;;;;5033505;28;20215;-84
2023/01/10 12:16:34;;;;;;;8.90;2.57;;;5.90;99.90;;;;;;4998581;28;20207;-84
2023/01/10 12:19:03;;;;;;;7.97;2.70;;;5.90;99.90;;;;;;5033484;28;20168;-84
2023/01/10 12:21:41;;;;;;;8.77;2.40;;;5.80;99.90;;;;;;5015305;28;20743;-84
2023/01/10 12:24:13;;;;;;;6.10;2.47;;;5.70;99.90;;;;;;5015695;28;20206;-84
2023/01/10 12:26:40;;;;;;;6.90;2.27;;;5.70;99.90;;;;;;5015240;28;20270;-84
2023/01/10 12:29:17;;;;;;;7.67;2.27;;;5.50;99.90;;;;;;5015194;28;20187;-84
2023/01/10 12:31:42;;;;;;;7.63;2.50;;;5.50;99.90;;;;;;5033230;28;20278;-84
2023/01/10 12:34:19;;;;;;;7.97;2.63;;;5.50;99.90;;;;;;5015606;28;20297;-84
2023/01/10 12:37:13;;;;;;;5.60;2.23;;;5.50;99.90;;;;;;5015260;28;20160;-84
2023/01/10 12:39:45;;;;;;;6.33;2.20;;;5.50;99.90;;;;;;5033068;28;20591;-83
2023/01/10 12:45:18;;;;;;;8.07;2.57;;;5.40;99.90;;;;;;5013306;28;20250;-84
2023/01/10 12:47:59;;;;;;;7.57;2.27;;;5.40;99.90;;;;;;4995586;28;20179;-84
2023/01/10 12:50:40;;;;;;;9.70;2.60;;;5.40;99.90;;;;;;4995535;28;20275;-84
2023/01/10 12:53:10;;;;;;;9.90;2.50;;;5.40;99.90;;;;;;4995751;28;20171;-84
2023/01/10 12:55:41;;;;;;;6.60;2.50;;;5.40;99.90;;;;;;5013359;28;20258;-84
2023/01/10 12:58:20;;;;;;;7.77;2.10;;;5.50;99.90;;;;;;5013051;28;20183;-84
2023/01/10 13:00:57;;;;;;;9.23;2.43;;;5.40;99.90;;;;;;5013632;28;20167;-81
2023/01/10 13:03:32;;;;;;;7.87;2.53;;;5.50;99.90;;;;;;4995122;28;20251;-81
2023/01/10 13:05:58;;;;;;;5.73;1.90;;;5.50;99.90;;;;;;5029307;22;20257;-83
2023/01/10 13:08:33;;;;;;;7.73;2.67;;;5.60;99.90;;;;;;5016355;28;20531;-82
2023/01/10 13:11:00;;;;;;;7.47;2.23;;;5.60;99.90;;;;;;5031585;28;20672;-81
2023/01/10 13:13:42;;;;;;;5.77;2.30;;;5.60;99.90;;;;;;5017933;28;20186;-81
2023/01/10 13:16:19;;;;;;;9.33;2.20;;;5.50;99.90;;;;;;4999435;28;20225;-81
2023/01/10 13:19:08;;;;;;;7.63;2.03;;;5.50;99.90;;;;;;4979873;28;20176;-81
2023/01/10 13:21:34;;;;;;;6.97;2.10;;;5.40;99.90;;;;;;4979913;28;20180;-81
2023/01/10 13:24:22;;;;;;;6.67;1.93;;;5.40;99.90;;;;;;4996819;28;20650;-82